Frem Nordica — OVIL2 — position and weather

sailwx.info

Track history (hours):
 
Tides and Currents Weather Stations Pressure Air Temp Water Temp Dewpoint Dewpoint Depression Visibility Wind Speed Wind Dir Waves Ship Positions

Frem Nordica

Last reported at 2016-Dec-10 21:33 UTC. Time now 2016-Dec-10 22:22 UTC.
Position N 54°52' E 010°54'.

Length 79 m; draft 2.7 m.

Type: Ship. MMSI: 220439000.

Date/timePositionNaut miles runAvg speedWind from/ knotsBaromVisibWave heightAir tempDewpointWater temp
2016-Dec-10 21:33N 54°52' E 010°54'7 7.4
2016-Dec-10 20:33N 54°45' E 010°56'8 8.1
2016-Dec-10 19:33N 54°41' E 011°09'8 8.1
2016-Dec-10 18:33N 54°36' E 011°20'7 7.1
2016-Dec-10 17:33N 54°29' E 011°22'29 8.4
2016-Dec-10 14:07N 54°01' E 011°20'4 7.7
2016-Dec-10 13:33N 53°57' E 011°24'4 3.6
2016-Dec-10 12:31N 53°54' E 011°28'0 0.0
2016-Dec-10 11:25N 53°54' E 011°28'0 0.0
2016-Dec-10 10:31N 53°54' E 011°28'0 0.0
2016-Dec-10 09:28N 53°54' E 011°28'0 0.0
2016-Dec-10 08:31N 53°54' E 011°28'0 0.0
2016-Dec-10 07:31N 53°54' E 011°28'0 0.0
2016-Dec-10 06:31N 53°54' E 011°28'0 0.0
2016-Dec-10 05:31N 53°54' E 011°28'0 0.0
2016-Dec-10 04:31N 53°54' E 011°28'0 0.0
2016-Dec-10 03:31N 53°54' E 011°28'0 0.0
2016-Dec-10 02:31N 53°54' E 011°28'0 0.0
2016-Dec-10 01:31N 53°54' E 011°28'0 0.0
2016-Dec-10 00:31N 53°54' E 011°28'0 0.0
2016-Dec-09 23:31N 53°54' E 011°28'0 0.0
2016-Dec-09 22:31N 53°54' E 011°28'0 0.0
2016-Dec-09 21:31N 53°54' E 011°28'0 0.0
2016-Dec-09 20:31N 53°54' E 011°28'0 0.0
2016-Dec-09 19:31N 53°54' E 011°28'0 0.0
2016-Dec-09 18:31N 53°54' E 011°28'0 0.0
2016-Dec-09 17:31N 53°54' E 011°28'0 0.0
2016-Dec-09 16:34N 53°54' E 011°28'0 0.0
2016-Dec-09 15:28N 53°54' E 011°28'0 0.0
2016-Dec-09 14:31N 53°54' E 011°28'0 0.0
2016-Dec-09 13:31N 53°54' E 011°28'0 0.0
2016-Dec-09 12:31N 53°54' E 011°28'0 0.0
2016-Dec-09 11:31N 53°54' E 011°28'3 3.4
2016-Dec-09 10:33N 53°57' E 011°25'6 5.4
2016-Dec-09 09:26N 54°03' E 011°25'6 7.3
2016-Dec-09 08:33N 54°08' E 011°31'10 7.9
2016-Dec-09 07:21N 54°15' E 011°42'6 7.5
2016-Dec-09 06:33N 54°19' E 011°50'14 7.1
2016-Dec-09 04:32N 54°30' E 012°06'8 7.8
2016-Dec-09 03:34N 54°37' E 012°12'8 7.8
2016-Dec-09 02:34N 54°43' E 012°20'32 7.7
2016-Dec-08 22:23N 55°15' E 012°29'7 8.6
2016-Dec-08 21:34N 55°22' E 012°29'8 8.0
2016-Dec-08 20:33N 55°27' E 012°17'3 2.7
2016-Dec-08 19:27N 55°27' E 012°12'0 0.0
2016-Dec-08 18:33N 55°27' E 012°12'0 0.0
2016-Dec-08 17:33N 55°27' E 012°12'0 0.0
2016-Dec-08 16:27N 55°27' E 012°12'0 0.0
2016-Dec-08 15:33N 55°27' E 012°12'0 0.0
2016-Dec-08 14:33N 55°27' E 012°12'0 0.0
2016-Dec-08 13:33N 55°27' E 012°12'3 3.4
2016-Dec-08 12:33N 55°27' E 012°18'8 8.2
2016-Dec-08 11:33N 55°22' E 012°29'8 7.9
2016-Dec-08 10:33N 55°14' E 012°32'23 7.7
2016-Dec-08 07:33N 54°51' E 012°30'8 8.4
2016-Dec-08 06:33N 54°44' E 012°22'8 8.3
2016-Dec-08 05:33N 54°37' E 012°14'11 8.4
2016-Dec-08 04:14N 54°28' E 012°02'6 8.1
2016-Dec-08 03:29N 54°23' E 011°56'8 8.6
2016-Dec-08 02:33N 54°17' E 011°48'19 8.5
2016-Dec-08 00:21N 54°03' E 011°26'6 7.4
2016-Dec-07 23:33N 53°59' E 011°20'6 6.0
2016-Dec-07 22:30N 53°54' E 011°28'0 0.0
2016-Dec-07 21:33N 53°54' E 011°28'0 0.0
2016-Dec-07 20:30N 53°54' E 011°28'0 0.0
2016-Dec-07 19:30N 53°54' E 011°28'0 0.0
2016-Dec-07 18:33N 53°54' E 011°28'0 0.0
2016-Dec-07 17:33N 53°54' E 011°28'0 0.0
2016-Dec-07 16:33N 53°54' E 011°28'0 0.0
2016-Dec-07 15:33N 53°54' E 011°28'0 0.0
2016-Dec-07 14:33N 53°54' E 011°28'0 0.0
2016-Dec-07 13:30N 53°54' E 011°28'0 0.0
2016-Dec-07 12:30N 53°54' E 011°28'0 0.0
2016-Dec-07 11:31N 53°54' E 011°28'0 0.0
2016-Dec-07 10:31N 53°54' E 011°28'0 0.0
2016-Dec-07 09:31N 53°54' E 011°28'4 3.6
2016-Dec-07 08:33N 53°57' E 011°24'5 5.2
2016-Dec-07 07:33N 54°02' E 011°24'8 7.4
2016-Dec-07 06:31N 54°08' E 011°31'8 8.3
2016-Dec-07 05:33N 54°14' E 011°41'16 7.9
2016-Dec-07 03:32N 54°27' E 011°57'8 8.3
2016-Dec-07 02:33N 54°32' E 012°08'8 8.2
2016-Dec-07 01:33N 54°39' E 012°15'39 7.8
2016-Dec-06 20:31N 55°18' E 012°29'13 6.8
2016-Dec-06 18:33N 55°27' E 012°13'0 0.3
2016-Dec-06 17:11N 55°27' E 012°12'0 0.0
2016-Dec-06 16:25N 55°27' E 012°12'0 0.0
2016-Dec-06 15:25N 55°27' E 012°12'0 0.0
2016-Dec-06 14:31N 55°27' E 012°12'0 0.0
2016-Dec-06 13:19N 55°27' E 012°12'0 0.0
2016-Dec-06 12:31N 55°27' E 012°12'0 0.0
2016-Dec-06 11:31N 55°27' E 012°12'0 0.2
2016-Dec-06 10:33N 55°27' E 012°12'7 7.2
2016-Dec-06 09:33N 55°29' E 012°24'8 8.2
2016-Dec-06 08:33N 55°32' E 012°38'6 6.2
2016-Dec-06 07:33N 55°38' E 012°42'7 7.3
2016-Dec-06 06:33N 55°45' E 012°41'9 8.5
2016-Dec-06 05:33N 55°53' E 012°39'8 8.2
2016-Dec-06 04:33N 56°01' E 012°38'8 7.7
2016-Dec-06 03:33N 56°07' E 012°29'9 8.9
2016-Dec-06 02:33N 56°12' E 012°16'87 8.7
2016-Dec-05 16:32N 57°02' E 010°06'2 2.0
2016-Dec-05 15:33N 57°03' E 010°03'0 0.0
2016-Dec-05 14:33N 57°03' E 010°03'0 0.0
2016-Dec-05 13:33N 57°03' E 010°03'0 0.0
2016-Dec-05 12:33N 57°03' E 010°03'0 0.0
2016-Dec-05 11:34N 57°03' E 010°03'0 0.0
2016-Dec-05 10:33N 57°03' E 010°03'0 0.0
2016-Dec-05 09:34N 57°03' E 010°03'0 0.0
2016-Dec-05 08:33N 57°03' E 010°03'0 0.0
2016-Dec-05 07:33N 57°03' E 010°03'0 0.0
2016-Dec-05 06:33N 57°03' E 010°03'2 1.6
2016-Dec-05 05:33N 57°03' E 010°05'126 7.0
2016-Dec-04 11:31N 55°05' E 011°25'7 7.4
2016-Dec-04 10:34N 55°01' E 011°34'7 7.3
2016-Dec-04 09:33N 54°55' E 011°42'6 5.7
2016-Dec-04 08:34N 54°50' E 011°48'5 4.1
2016-Dec-04 07:26N 54°46' E 011°52'0 0.0
2016-Dec-04 06:32N 54°46' E 011°52'0 0.0
2016-Dec-04 05:32N 54°46' E 011°52'0 0.0
2016-Dec-04 04:27N 54°46' E 011°52'0 0.0
2016-Dec-04 03:33N 54°46' E 011°52'0 0.0
2016-Dec-04 02:27N 54°46' E 011°52'0 0.0
2016-Dec-04 01:09N 54°46' E 011°52'0 0.0
2016-Dec-04 00:33N 54°46' E 011°52'0 0.0
2016-Dec-03 23:33N 54°46' E 011°52'0 0.0
2016-Dec-03 22:33N 54°46' E 011°52'0 0.0
2016-Dec-03 21:31N 54°46' E 011°52'0 0.0
2016-Dec-03 20:33N 54°46' E 011°52'0 0.0
2016-Dec-03 19:33N 54°46' E 011°52'0 0.0
2016-Dec-03 18:33N 54°46' E 011°52'0 0.0
2016-Dec-03 17:33N 54°46' E 011°52'0 0.0
2016-Dec-03 16:30N 54°46' E 011°52'0 0.0
2016-Dec-03 15:22N 54°46' E 011°52'0 0.0
2016-Dec-03 14:30N 54°46' E 011°52'0 0.0
2016-Dec-03 13:33N 54°46' E 011°52'0 0.0
2016-Dec-03 12:33N 54°46' E 011°52'0 0.0
2016-Dec-03 11:33N 54°46' E 011°52'0 0.0
2016-Dec-03 10:24N 54°46' E 011°52'0 0.0
2016-Dec-03 09:33N 54°46' E 011°52'1 0.7
2016-Dec-03 08:33N 54°47' E 011°51'4 4.1
2016-Dec-03 07:33N 54°50' E 011°48'5 5.1
2016-Dec-03 06:33N 54°54' E 011°43'5 5.4
2016-Dec-03 05:33N 54°59' E 011°39'2 2.4
2016-Dec-03 04:33N 55°00' E 011°43'0 0.3
2016-Dec-03 03:33N 55°00' E 011°43'4 4.2
2016-Dec-03 02:33N 54°59' E 011°50'16 6.4
2016-Dec-03 00:03N 54°49' E 012°12'1 2.2
2016-Dec-02 23:33N 54°48' E 012°12'4 3.6
2016-Dec-02 22:33N 54°44' E 012°12'5 5.2
2016-Dec-02 21:34N 54°39' E 012°11'15 5.0
2016-Dec-02 18:33N 54°26' E 011°58'5 5.2
2016-Dec-02 17:33N 54°22' E 011°53'5 5.3
2016-Dec-02 16:33N 54°18' E 011°46'25 4.6
2016-Dec-02 11:07N 53°58' E 011°21'4 6.4
2016-Dec-02 10:33N 53°56' E 011°25'2 2.2
2016-Dec-02 09:31N 53°54' E 011°28'0 0.0
2016-Dec-02 08:31N 53°54' E 011°28'0 0.0
2016-Dec-02 07:31N 53°54' E 011°28'0 0.0
2016-Dec-02 06:31N 53°54' E 011°28'0 0.0
2016-Dec-02 05:31N 53°54' E 011°28'0 0.0
2016-Dec-02 04:33N 53°54' E 011°28'0 0.0
2016-Dec-02 03:33N 53°54' E 011°28'0 0.0
2016-Dec-02 02:33N 53°54' E 011°28'0 0.0
2016-Dec-02 01:33N 53°54' E 011°28'0 0.0
2016-Dec-02 00:33N 53°54' E 011°28'0 0.0
2016-Dec-01 23:33N 53°54' E 011°28'0 0.0
2016-Dec-01 22:33N 53°54' E 011°28'0 0.0
2016-Dec-01 21:33N 53°54' E 011°28'0 0.0
2016-Dec-01 20:33N 53°54' E 011°28'0 0.0
2016-Dec-01 19:33N 53°54' E 011°28'0 0.0
2016-Dec-01 18:33N 53°54' E 011°28'0 0.0
2016-Dec-01 17:33N 53°54' E 011°28'0 0.0
2016-Dec-01 16:33N 53°54' E 011°28'0 0.0
2016-Dec-01 15:33N 53°54' E 011°28'0 0.0
2016-Dec-01 14:33N 53°54' E 011°28'0 0.0
2016-Dec-01 13:33N 53°54' E 011°28'0 0.0
2016-Dec-01 12:33N 53°54' E 011°28'0 0.0
2016-Dec-01 11:33N 53°54' E 011°28'0 0.0
2016-Dec-01 10:33N 53°54' E 011°28'0 0.0
2016-Dec-01 09:33N 53°54' E 011°28'1 1.5
2016-Dec-01 08:33N 53°55' E 011°26'8 7.7
2016-Dec-01 07:32N 54°02' E 011°19'14 6.8
2016-Dec-01 05:33N 54°14' E 011°28'7 6.9
2016-Dec-01 04:31N 54°18' E 011°38'6 6.5
2016-Dec-01 03:33N 54°22' E 011°47'7 6.9
2016-Dec-01 02:33N 54°26' E 011°56'7 6.9
2016-Dec-01 01:34N 54°30' E 012°06'8 7.8
2016-Dec-01 00:33N 54°37' E 012°11'8 7.9
2016-Nov-30 23:33N 54°44' E 012°19'  
Track history (hours):
 
Tides and Currents Weather Stations Pressure Air Temp Water Temp Dewpoint Dewpoint Depression Visibility Wind Speed Wind Dir Waves Ship Positions

Frem Nordica

Last reported at 2016-Dec-10 21:33 UTC. Time now 2016-Dec-10 22:22 UTC.
Position N 54°52' E 010°54'.

Length 79 m; draft 2.7 m.

Type: Ship. MMSI: 220439000.

Date/timePositionNaut miles runAvg speedWind from/ knotsBaromVisibWave heightAir tempDewpointWater temp
2016-Dec-10 21:33N 54°52' E 010°54'7 7.4
2016-Dec-10 20:33N 54°45' E 010°56'8 8.1
2016-Dec-10 19:33N 54°41' E 011°09'8 8.1
2016-Dec-10 18:33N 54°36' E 011°20'7 7.1
2016-Dec-10 17:33N 54°29' E 011°22'29 8.4
2016-Dec-10 14:07N 54°01' E 011°20'4 7.7
2016-Dec-10 13:33N 53°57' E 011°24'4 3.6
2016-Dec-10 12:31N 53°54' E 011°28'0 0.0
2016-Dec-10 11:25N 53°54' E 011°28'0 0.0
2016-Dec-10 10:31N 53°54' E 011°28'0 0.0
2016-Dec-10 09:28N 53°54' E 011°28'0 0.0
2016-Dec-10 08:31N 53°54' E 011°28'0 0.0
2016-Dec-10 07:31N 53°54' E 011°28'0 0.0
2016-Dec-10 06:31N 53°54' E 011°28'0 0.0
2016-Dec-10 05:31N 53°54' E 011°28'0 0.0
2016-Dec-10 04:31N 53°54' E 011°28'0 0.0
2016-Dec-10 03:31N 53°54' E 011°28'0 0.0
2016-Dec-10 02:31N 53°54' E 011°28'0 0.0
2016-Dec-10 01:31N 53°54' E 011°28'0 0.0
2016-Dec-10 00:31N 53°54' E 011°28'0 0.0
2016-Dec-09 23:31N 53°54' E 011°28'0 0.0
2016-Dec-09 22:31N 53°54' E 011°28'0 0.0
2016-Dec-09 21:31N 53°54' E 011°28'0 0.0
2016-Dec-09 20:31N 53°54' E 011°28'0 0.0
2016-Dec-09 19:31N 53°54' E 011°28'0 0.0
2016-Dec-09 18:31N 53°54' E 011°28'0 0.0
2016-Dec-09 17:31N 53°54' E 011°28'0 0.0
2016-Dec-09 16:34N 53°54' E 011°28'0 0.0
2016-Dec-09 15:28N 53°54' E 011°28'0 0.0
2016-Dec-09 14:31N 53°54' E 011°28'0 0.0
2016-Dec-09 13:31N 53°54' E 011°28'0 0.0
2016-Dec-09 12:31N 53°54' E 011°28'0 0.0
2016-Dec-09 11:31N 53°54' E 011°28'3 3.4
2016-Dec-09 10:33N 53°57' E 011°25'6 5.4
2016-Dec-09 09:26N 54°03' E 011°25'6 7.3
2016-Dec-09 08:33N 54°08' E 011°31'10 7.9
2016-Dec-09 07:21N 54°15' E 011°42'6 7.5
2016-Dec-09 06:33N 54°19' E 011°50'14 7.1
2016-Dec-09 04:32N 54°30' E 012°06'8 7.8
2016-Dec-09 03:34N 54°37' E 012°12'8 7.8
2016-Dec-09 02:34N 54°43' E 012°20'32 7.7
2016-Dec-08 22:23N 55°15' E 012°29'7 8.6
2016-Dec-08 21:34N 55°22' E 012°29'8 8.0
2016-Dec-08 20:33N 55°27' E 012°17'3 2.7
2016-Dec-08 19:27N 55°27' E 012°12'0 0.0
2016-Dec-08 18:33N 55°27' E 012°12'0 0.0
2016-Dec-08 17:33N 55°27' E 012°12'0 0.0
2016-Dec-08 16:27N 55°27' E 012°12'0 0.0
2016-Dec-08 15:33N 55°27' E 012°12'0 0.0
2016-Dec-08 14:33N 55°27' E 012°12'0 0.0
2016-Dec-08 13:33N 55°27' E 012°12'3 3.4
2016-Dec-08 12:33N 55°27' E 012°18'8 8.2
2016-Dec-08 11:33N 55°22' E 012°29'8 7.9
2016-Dec-08 10:33N 55°14' E 012°32'23 7.7
2016-Dec-08 07:33N 54°51' E 012°30'8 8.4
2016-Dec-08 06:33N 54°44' E 012°22'8 8.3
2016-Dec-08 05:33N 54°37' E 012°14'11 8.4
2016-Dec-08 04:14N 54°28' E 012°02'6 8.1
2016-Dec-08 03:29N 54°23' E 011°56'8 8.6
2016-Dec-08 02:33N 54°17' E 011°48'19 8.5
2016-Dec-08 00:21N 54°03' E 011°26'6 7.4
2016-Dec-07 23:33N 53°59' E 011°20'6 6.0
2016-Dec-07 22:30N 53°54' E 011°28'0 0.0
2016-Dec-07 21:33N 53°54' E 011°28'0 0.0
2016-Dec-07 20:30N 53°54' E 011°28'0 0.0
2016-Dec-07 19:30N 53°54' E 011°28'0 0.0
2016-Dec-07 18:33N 53°54' E 011°28'0 0.0
2016-Dec-07 17:33N 53°54' E 011°28'0 0.0
2016-Dec-07 16:33N 53°54' E 011°28'0 0.0
2016-Dec-07 15:33N 53°54' E 011°28'0 0.0
2016-Dec-07 14:33N 53°54' E 011°28'0 0.0
2016-Dec-07 13:30N 53°54' E 011°28'0 0.0
2016-Dec-07 12:30N 53°54' E 011°28'0 0.0
2016-Dec-07 11:31N 53°54' E 011°28'0 0.0
2016-Dec-07 10:31N 53°54' E 011°28'0 0.0
2016-Dec-07 09:31N 53°54' E 011°28'4 3.6
2016-Dec-07 08:33N 53°57' E 011°24'5 5.2
2016-Dec-07 07:33N 54°02' E 011°24'8 7.4
2016-Dec-07 06:31N 54°08' E 011°31'8 8.3
2016-Dec-07 05:33N 54°14' E 011°41'16 7.9
2016-Dec-07 03:32N 54°27' E 011°57'8 8.3
2016-Dec-07 02:33N 54°32' E 012°08'8 8.2
2016-Dec-07 01:33N 54°39' E 012°15'39 7.8
2016-Dec-06 20:31N 55°18' E 012°29'13 6.8
2016-Dec-06 18:33N 55°27' E 012°13'0 0.3
2016-Dec-06 17:11N 55°27' E 012°12'0 0.0
2016-Dec-06 16:25N 55°27' E 012°12'0 0.0
2016-Dec-06 15:25N 55°27' E 012°12'0 0.0
2016-Dec-06 14:31N 55°27' E 012°12'0 0.0
2016-Dec-06 13:19N 55°27' E 012°12'0 0.0
2016-Dec-06 12:31N 55°27' E 012°12'0 0.0
2016-Dec-06 11:31N 55°27' E 012°12'0 0.2
2016-Dec-06 10:33N 55°27' E 012°12'7 7.2
2016-Dec-06 09:33N 55°29' E 012°24'8 8.2
2016-Dec-06 08:33N 55°32' E 012°38'6 6.2
2016-Dec-06 07:33N 55°38' E 012°42'7 7.3
2016-Dec-06 06:33N 55°45' E 012°41'9 8.5
2016-Dec-06 05:33N 55°53' E 012°39'8 8.2
2016-Dec-06 04:33N 56°01' E 012°38'8 7.7
2016-Dec-06 03:33N 56°07' E 012°29'9 8.9
2016-Dec-06 02:33N 56°12' E 012°16'87 8.7
2016-Dec-05 16:32N 57°02' E 010°06'2 2.0
2016-Dec-05 15:33N 57°03' E 010°03'0 0.0
2016-Dec-05 14:33N 57°03' E 010°03'0 0.0
2016-Dec-05 13:33N 57°03' E 010°03'0 0.0
2016-Dec-05 12:33N 57°03' E 010°03'0 0.0
2016-Dec-05 11:34N 57°03' E 010°03'0 0.0
2016-Dec-05 10:33N 57°03' E 010°03'0 0.0
2016-Dec-05 09:34N 57°03' E 010°03'0 0.0
2016-Dec-05 08:33N 57°03' E 010°03'0 0.0
2016-Dec-05 07:33N 57°03' E 010°03'0 0.0
2016-Dec-05 06:33N 57°03' E 010°03'2 1.6
2016-Dec-05 05:33N 57°03' E 010°05'126 7.0
2016-Dec-04 11:31N 55°05' E 011°25'7 7.4
2016-Dec-04 10:34N 55°01' E 011°34'7 7.3
2016-Dec-04 09:33N 54°55' E 011°42'6 5.7
2016-Dec-04 08:34N 54°50' E 011°48'5 4.1
2016-Dec-04 07:26N 54°46' E 011°52'0 0.0
2016-Dec-04 06:32N 54°46' E 011°52'0 0.0
2016-Dec-04 05:32N 54°46' E 011°52'0 0.0
2016-Dec-04 04:27N 54°46' E 011°52'0 0.0
2016-Dec-04 03:33N 54°46' E 011°52'0 0.0
2016-Dec-04 02:27N 54°46' E 011°52'0 0.0
2016-Dec-04 01:09N 54°46' E 011°52'0 0.0
2016-Dec-04 00:33N 54°46' E 011°52'0 0.0
2016-Dec-03 23:33N 54°46' E 011°52'0 0.0
2016-Dec-03 22:33N 54°46' E 011°52'0 0.0
2016-Dec-03 21:31N 54°46' E 011°52'0 0.0
2016-Dec-03 20:33N 54°46' E 011°52'0 0.0
2016-Dec-03 19:33N 54°46' E 011°52'0 0.0
2016-Dec-03 18:33N 54°46' E 011°52'0 0.0
2016-Dec-03 17:33N 54°46' E 011°52'0 0.0
2016-Dec-03 16:30N 54°46' E 011°52'0 0.0
2016-Dec-03 15:22N 54°46' E 011°52'0 0.0
2016-Dec-03 14:30N 54°46' E 011°52'0 0.0
2016-Dec-03 13:33N 54°46' E 011°52'0 0.0
2016-Dec-03 12:33N 54°46' E 011°52'0 0.0
2016-Dec-03 11:33N 54°46' E 011°52'0 0.0
2016-Dec-03 10:24N 54°46' E 011°52'0 0.0
2016-Dec-03 09:33N 54°46' E 011°52'1 0.7
2016-Dec-03 08:33N 54°47' E 011°51'4 4.1
2016-Dec-03 07:33N 54°50' E 011°48'5 5.1
2016-Dec-03 06:33N 54°54' E 011°43'5 5.4
2016-Dec-03 05:33N 54°59' E 011°39'2 2.4
2016-Dec-03 04:33N 55°00' E 011°43'0 0.3
2016-Dec-03 03:33N 55°00' E 011°43'4 4.2
2016-Dec-03 02:33N 54°59' E 011°50'16 6.4
2016-Dec-03 00:03N 54°49' E 012°12'1 2.2
2016-Dec-02 23:33N 54°48' E 012°12'4 3.6
2016-Dec-02 22:33N 54°44' E 012°12'5 5.2
2016-Dec-02 21:34N 54°39' E 012°11'15 5.0
2016-Dec-02 18:33N 54°26' E 011°58'5 5.2
2016-Dec-02 17:33N 54°22' E 011°53'5 5.3
2016-Dec-02 16:33N 54°18' E 011°46'25 4.6
2016-Dec-02 11:07N 53°58' E 011°21'4 6.4
2016-Dec-02 10:33N 53°56' E 011°25'2 2.2
2016-Dec-02 09:31N 53°54' E 011°28'0 0.0
2016-Dec-02 08:31N 53°54' E 011°28'0 0.0
2016-Dec-02 07:31N 53°54' E 011°28'0 0.0
2016-Dec-02 06:31N 53°54' E 011°28'0 0.0
2016-Dec-02 05:31N 53°54' E 011°28'0 0.0
2016-Dec-02 04:33N 53°54' E 011°28'0 0.0
2016-Dec-02 03:33N 53°54' E 011°28'0 0.0
2016-Dec-02 02:33N 53°54' E 011°28'0 0.0
2016-Dec-02 01:33N 53°54' E 011°28'0 0.0
2016-Dec-02 00:33N 53°54' E 011°28'0 0.0
2016-Dec-01 23:33N 53°54' E 011°28'0 0.0
2016-Dec-01 22:33N 53°54' E 011°28'0 0.0
2016-Dec-01 21:33N 53°54' E 011°28'0 0.0
2016-Dec-01 20:33N 53°54' E 011°28'0 0.0
2016-Dec-01 19:33N 53°54' E 011°28'0 0.0
2016-Dec-01 18:33N 53°54' E 011°28'0 0.0
2016-Dec-01 17:33N 53°54' E 011°28'0 0.0
2016-Dec-01 16:33N 53°54' E 011°28'0 0.0
2016-Dec-01 15:33N 53°54' E 011°28'0 0.0
2016-Dec-01 14:33N 53°54' E 011°28'0 0.0
2016-Dec-01 13:33N 53°54' E 011°28'0 0.0
2016-Dec-01 12:33N 53°54' E 011°28'0 0.0
2016-Dec-01 11:33N 53°54' E 011°28'0 0.0
2016-Dec-01 10:33N 53°54' E 011°28'0 0.0
2016-Dec-01 09:33N 53°54' E 011°28'1 1.5
2016-Dec-01 08:33N 53°55' E 011°26'8 7.7
2016-Dec-01 07:32N 54°02' E 011°19'14 6.8
2016-Dec-01 05:33N 54°14' E 011°28'7 6.9
2016-Dec-01 04:31N 54°18' E 011°38'6 6.5
2016-Dec-01 03:33N 54°22' E 011°47'7 6.9
2016-Dec-01 02:33N 54°26' E 011°56'7 6.9
2016-Dec-01 01:34N 54°30' E 012°06'8 7.8
2016-Dec-01 00:33N 54°37' E 012°11'8 7.9
2016-Nov-30 23:33N 54°44' E 012°19'  

Dump ship's entire track history